createdAt,value
2023-04-19T00:00:58.357Z,6.94
2023-04-19T00:01:58.361Z,6.94
2023-04-19T00:02:58.597Z,6.97
2023-04-19T00:03:58.508Z,6.98
2023-04-19T00:04:58.361Z,6.99
2023-04-19T00:05:58.270Z,6.98
2023-04-19T00:06:58.267Z,7.01
2023-04-19T00:07:58.262Z,6.99
2023-04-19T00:08:58.243Z,6.97
2023-04-19T00:09:58.222Z,6.97
2023-04-19T00:10:58.213Z,6.97
2023-04-19T00:11:58.186Z,6.97
2023-04-19T00:12:58.185Z,6.95
2023-04-19T00:13:58.180Z,6.97
2023-04-19T00:14:58.154Z,6.97
2023-04-19T00:15:58.146Z,6.95
2023-04-19T00:16:58.159Z,6.95
2023-04-19T00:17:58.130Z,6.91
2023-04-19T00:18:58.108Z,6.91
2023-04-19T00:19:58.160Z,6.91
2023-04-19T00:20:58.088Z,6.90
2023-04-19T00:21:58.099Z,6.89
2023-04-19T00:22:58.061Z,6.87
2023-04-19T00:23:58.031Z,6.83
2023-04-19T00:24:58.016Z,6.83
2023-04-19T00:25:58.044Z,6.83
2023-04-19T00:26:58.007Z,6.84
2023-04-19T00:27:57.983Z,6.84
2023-04-19T00:28:57.968Z,6.86
2023-04-19T00:29:57.980Z,6.87
2023-04-19T00:30:58.063Z,6.86
2023-04-19T00:31:57.923Z,6.86
2023-04-19T00:33:12.779Z,6.84
2023-04-19T00:33:57.937Z,6.86
2023-04-19T00:34:57.894Z,6.87
2023-04-19T00:35:57.891Z,6.84
2023-04-19T00:36:57.896Z,6.84
2023-04-19T00:37:57.843Z,6.80
2023-04-19T00:38:57.856Z,6.81
2023-04-19T00:39:57.820Z,6.80
2023-04-19T00:40:57.839Z,6.81
2023-04-19T00:41:57.804Z,6.79
2023-04-19T00:42:57.779Z,6.76
2023-04-19T00:43:57.817Z,6.77
2023-04-19T00:44:57.762Z,6.76
2023-04-19T00:46:04.951Z,6.72
2023-04-19T00:46:57.749Z,6.76
2023-04-19T00:47:57.788Z,6.72
2023-04-19T00:48:57.721Z,6.72
2023-04-19T00:49:57.705Z,6.72
2023-04-19T00:50:57.712Z,6.69
2023-04-19T00:51:57.703Z,6.66
2023-04-19T00:52:57.690Z,6.63
2023-04-19T00:53:57.674Z,6.63
2023-04-19T00:54:57.634Z,6.58
2023-04-19T00:55:57.607Z,6.51
2023-04-19T00:56:57.604Z,6.51
2023-04-19T00:57:57.589Z,6.50
2023-04-19T00:58:57.603Z,6.47
2023-04-19T00:59:57.573Z,6.41
2023-04-19T01:00:57.566Z,6.38
2023-04-19T01:01:57.731Z,6.36
2023-04-19T01:02:57.667Z,6.36
2023-04-19T01:03:57.633Z,6.29
2023-04-19T01:04:57.513Z,6.29
2023-04-19T01:05:57.497Z,6.19
2023-04-19T01:06:57.471Z,6.19
2023-04-19T01:07:57.462Z,6.11
2023-04-19T01:08:57.463Z,6.07
2023-04-19T01:09:57.457Z,6.01
2023-04-19T01:10:57.416Z,6.00
2023-04-19T01:11:57.406Z,6.00
2023-04-19T01:12:57.391Z,5.96
2023-04-19T01:13:57.380Z,5.92
2023-04-19T01:14:57.369Z,5.89
2023-04-19T01:15:57.516Z,5.82
2023-04-19T01:16:57.391Z,5.75
2023-04-19T01:17:57.342Z,5.75
2023-04-19T01:18:57.338Z,5.71
2023-04-19T01:19:57.313Z,5.68
2023-04-19T01:20:57.305Z,5.66
2023-04-19T01:21:57.288Z,5.60
2023-04-19T01:22:57.285Z,5.57
2023-04-19T01:23:57.254Z,5.55
2023-04-19T01:24:57.293Z,5.49
2023-04-19T01:25:57.234Z,5.49
2023-04-19T01:26:57.214Z,5.48
2023-04-19T01:27:57.212Z,5.46
2023-04-19T01:28:57.185Z,5.45
2023-04-19T01:29:57.176Z,5.43
2023-04-19T01:30:57.249Z,5.43
2023-04-19T01:31:57.167Z,5.40
2023-04-19T01:32:57.199Z,5.37
2023-04-19T01:33:57.177Z,5.35
2023-04-19T01:34:57.149Z,5.35
2023-04-19T01:35:57.110Z,5.37
2023-04-19T01:36:57.108Z,5.34
2023-04-19T01:37:57.068Z,5.32
2023-04-19T01:38:57.137Z,5.31
2023-04-19T01:39:57.070Z,5.30
2023-04-19T01:40:57.039Z,5.27
2023-04-19T01:41:57.022Z,5.30
2023-04-19T01:42:57.041Z,5.25
2023-04-19T01:43:56.996Z,5.23
2023-04-19T01:44:56.988Z,5.22
2023-04-19T01:45:56.986Z,5.22
2023-04-19T01:46:56.986Z,5.17
2023-04-19T01:47:57.013Z,5.14
2023-04-19T01:48:56.974Z,5.12
2023-04-19T01:49:56.929Z,5.13
2023-04-19T01:50:56.913Z,5.10
2023-04-19T01:51:56.914Z,5.05
2023-04-19T01:52:56.903Z,5.04
2023-04-19T01:53:56.889Z,4.99
2023-04-19T01:54:56.876Z,4.98
2023-04-19T01:55:56.853Z,4.95
2023-04-19T01:56:56.836Z,4.96
2023-04-19T01:57:56.828Z,4.95
2023-04-19T01:58:56.842Z,4.95
2023-04-19T01:59:56.804Z,4.95
2023-04-19T02:00:56.817Z,4.95
2023-04-19T02:01:56.924Z,4.92
2023-04-19T02:02:56.930Z,4.92
2023-04-19T02:03:56.869Z,4.92
2023-04-19T02:04:56.730Z,4.92
2023-04-19T02:05:56.717Z,4.91
2023-04-19T02:06:56.702Z,4.92
2023-04-19T02:07:56.702Z,4.89
2023-04-19T02:08:56.703Z,4.88
2023-04-19T02:09:56.669Z,4.88
2023-04-19T02:10:56.653Z,4.86
2023-04-19T02:11:56.658Z,4.86
2023-04-19T02:12:56.646Z,4.86
2023-04-19T02:13:56.621Z,4.79
2023-04-19T02:14:56.618Z,4.75
2023-04-19T02:15:56.660Z,4.75
2023-04-19T02:16:56.648Z,4.76
2023-04-19T02:17:56.587Z,4.75
2023-04-19T02:18:56.550Z,4.75
2023-04-19T02:19:56.543Z,4.77
2023-04-19T02:21:03.661Z,4.75
2023-04-19T02:21:56.529Z,4.73
2023-04-19T02:22:56.524Z,4.70
2023-04-19T02:23:56.472Z,4.69
2023-04-19T02:24:56.474Z,4.67
2023-04-19T02:25:56.452Z,4.64
2023-04-19T02:26:56.509Z,4.61
2023-04-19T02:27:56.440Z,4.62
2023-04-19T02:28:56.427Z,4.62
2023-04-19T02:29:56.423Z,4.62
2023-04-19T02:30:56.410Z,4.61
2023-04-19T02:31:56.439Z,4.62
2023-04-19T02:32:56.417Z,4.61
2023-04-19T02:33:56.500Z,4.58
2023-04-19T02:34:56.336Z,4.58
2023-04-19T02:35:56.337Z,4.52
2023-04-19T02:36:56.357Z,4.51
2023-04-19T02:37:56.300Z,4.51
2023-04-19T02:38:56.295Z,4.50
2023-04-19T02:39:56.276Z,4.50
2023-04-19T02:40:56.279Z,4.46
2023-04-19T02:41:56.277Z,4.43
2023-04-19T02:42:56.245Z,4.43
2023-04-19T02:43:56.268Z,4.43
2023-04-19T02:44:56.217Z,4.42
2023-04-19T02:45:56.244Z,4.34
2023-04-19T02:46:56.208Z,4.29
2023-04-19T02:47:56.276Z,4.32
2023-04-19T02:48:56.153Z,4.24
2023-04-19T02:49:56.151Z,4.22
2023-04-19T02:50:56.152Z,4.22
2023-04-19T02:51:56.135Z,4.18
2023-04-19T02:52:56.125Z,4.18
2023-04-19T02:53:56.114Z,4.21
2023-04-19T02:54:56.098Z,4.16
2023-04-19T02:55:56.083Z,4.15
2023-04-19T02:56:56.093Z,4.16
2023-04-19T02:57:56.057Z,4.15
2023-04-19T02:58:56.040Z,4.12
2023-04-19T02:59:56.032Z,4.10
2023-04-19T03:00:56.032Z,4.10
2023-04-19T03:01:56.061Z,4.07
2023-04-19T03:02:56.215Z,4.04
2023-04-19T03:03:56.071Z,4.03
2023-04-19T03:04:55.971Z,4.01
2023-04-19T03:05:55.948Z,3.98
2023-04-19T03:06:55.966Z,3.98
2023-04-19T03:07:55.921Z,3.96
2023-04-19T03:08:55.938Z,3.94
2023-04-19T03:09:55.925Z,3.94
2023-04-19T03:10:55.878Z,3.90
2023-04-19T03:11:55.874Z,3.90
2023-04-19T03:12:55.949Z,3.90
2023-04-19T03:13:55.853Z,3.88
2023-04-19T03:14:55.819Z,3.88
2023-04-19T03:15:55.908Z,3.88
2023-04-19T03:16:55.840Z,3.90
2023-04-19T03:17:55.854Z,3.92
2023-04-19T03:18:55.786Z,3.89
2023-04-19T03:19:55.801Z,3.89
2023-04-19T03:20:55.752Z,3.85
2023-04-19T03:21:55.758Z,3.83
2023-04-19T03:22:55.714Z,3.80
2023-04-19T03:23:55.723Z,3.79
2023-04-19T03:24:55.701Z,3.72
2023-04-19T03:25:55.717Z,3.71
2023-04-19T03:26:55.664Z,3.72
2023-04-19T03:27:55.639Z,3.71
2023-04-19T03:28:55.644Z,3.68
2023-04-19T03:29:55.629Z,3.67
2023-04-19T03:30:55.630Z,3.64
2023-04-19T03:31:55.589Z,3.64
2023-04-19T03:32:55.690Z,3.62
2023-04-19T03:33:55.564Z,3.60
2023-04-19T03:34:55.557Z,3.53
2023-04-19T03:35:55.568Z,3.50
2023-04-19T03:36:55.539Z,3.49
2023-04-19T03:37:55.651Z,3.49
2023-04-19T03:38:55.488Z,3.49
2023-04-19T03:39:55.478Z,3.49
2023-04-19T03:40:55.469Z,3.47
2023-04-19T03:41:55.509Z,3.49
2023-04-19T03:42:55.501Z,3.50
2023-04-19T03:43:55.450Z,3.49
2023-04-19T03:44:55.414Z,3.47
2023-04-19T03:45:55.451Z,3.46
2023-04-19T03:46:55.408Z,3.46
2023-04-19T03:47:55.406Z,3.47
2023-04-19T03:48:55.386Z,3.49
2023-04-19T03:49:55.370Z,3.49
2023-04-19T03:50:55.345Z,3.49
2023-04-19T03:51:55.334Z,3.49
2023-04-19T03:52:55.307Z,3.49
2023-04-19T03:53:55.298Z,3.49
2023-04-19T03:54:55.309Z,3.52
2023-04-19T03:55:55.280Z,3.52
2023-04-19T03:56:55.247Z,3.53
2023-04-19T03:57:55.255Z,3.54
2023-04-19T03:58:55.237Z,3.58
2023-04-19T03:59:55.224Z,3.61
2023-04-19T04:00:55.205Z,3.62
2023-04-19T04:01:56.043Z,3.61
2023-04-19T04:02:55.342Z,3.60
2023-04-19T04:03:55.285Z,3.62
2023-04-19T04:04:55.295Z,3.64
2023-04-19T04:05:55.152Z,3.64
2023-04-19T04:06:55.128Z,3.65
2023-04-19T04:07:55.116Z,3.65
2023-04-19T04:08:55.163Z,3.68
2023-04-19T04:09:55.086Z,3.71
2023-04-19T04:10:55.072Z,3.72
2023-04-19T04:11:55.069Z,3.70
2023-04-19T04:12:55.048Z,3.70
2023-04-19T04:13:55.057Z,3.68
2023-04-19T04:14:55.006Z,3.68
2023-04-19T04:15:55.047Z,3.68
2023-04-19T04:16:54.998Z,3.68
2023-04-19T04:17:54.997Z,3.71
2023-04-19T04:18:54.953Z,3.72
2023-04-19T04:19:54.964Z,3.76
2023-04-19T04:20:54.927Z,3.75
2023-04-19T04:21:54.928Z,3.72
2023-04-19T04:22:54.937Z,3.71
2023-04-19T04:23:54.918Z,3.75
2023-04-19T04:24:54.890Z,3.75
2023-04-19T04:25:54.869Z,3.78
2023-04-19T04:26:54.851Z,3.78
2023-04-19T04:27:54.851Z,3.78
2023-04-19T04:28:54.825Z,3.79
2023-04-19T04:29:54.839Z,3.76
2023-04-19T04:30:54.817Z,3.75
2023-04-19T04:31:54.848Z,3.78
2023-04-19T04:32:54.902Z,3.78
2023-04-19T04:33:54.777Z,3.76
2023-04-19T04:34:54.776Z,3.82
2023-04-19T04:35:54.756Z,3.80
2023-04-19T04:36:54.751Z,3.83
2023-04-19T04:37:54.740Z,3.88
2023-04-19T04:38:54.723Z,3.90
2023-04-19T04:39:54.710Z,3.94
2023-04-19T04:40:54.715Z,3.98
2023-04-19T04:41:54.697Z,4.00
2023-04-19T04:42:54.660Z,4.00
2023-04-19T04:44:10.789Z,4.01
2023-04-19T04:44:55.647Z,4.04
2023-04-19T04:45:54.667Z,4.07
2023-04-19T04:46:54.619Z,4.14
2023-04-19T04:47:54.638Z,4.15
2023-04-19T04:48:54.604Z,4.18
2023-04-19T04:49:54.580Z,4.22
2023-04-19T04:50:54.582Z,4.28
2023-04-19T04:51:54.555Z,4.28
2023-04-19T04:52:54.546Z,4.32
2023-04-19T04:53:54.560Z,4.36
2023-04-19T04:54:54.520Z,4.37
2023-04-19T04:55:54.515Z,4.39
2023-04-19T04:56:54.515Z,4.37
2023-04-19T04:57:54.501Z,4.39
2023-04-19T04:58:54.469Z,4.40
2023-04-19T04:59:54.451Z,4.42
2023-04-19T05:00:54.483Z,4.43
2023-04-19T05:01:54.423Z,4.46
2023-04-19T05:02:54.468Z,4.50
2023-04-19T05:03:54.434Z,4.52
2023-04-19T05:04:54.383Z,4.55
2023-04-19T05:05:54.370Z,4.59
2023-04-19T05:06:54.375Z,4.64
2023-04-19T05:07:54.334Z,4.67
2023-04-19T05:08:54.347Z,4.65
2023-04-19T05:09:54.356Z,4.70
2023-04-19T05:10:54.307Z,4.72
2023-04-19T05:11:54.310Z,4.76
2023-04-19T05:12:54.288Z,4.76
2023-04-19T05:13:54.276Z,4.79
2023-04-19T05:14:54.267Z,4.77
2023-04-19T05:15:54.313Z,4.83
2023-04-19T05:16:54.276Z,4.83
2023-04-19T05:17:54.254Z,4.86
2023-04-19T05:18:54.226Z,4.89
2023-04-19T05:19:54.218Z,4.94
2023-04-19T05:20:54.169Z,4.98
2023-04-19T05:21:54.235Z,4.98
2023-04-19T05:22:54.158Z,5.02
2023-04-19T05:23:54.197Z,5.04
2023-04-19T05:24:54.109Z,5.05
2023-04-19T05:25:54.108Z,5.07
2023-04-19T05:26:54.102Z,5.07
2023-04-19T05:27:54.094Z,5.12
2023-04-19T05:28:54.060Z,5.13
2023-04-19T05:29:54.071Z,5.17
2023-04-19T05:30:54.064Z,5.17
2023-04-19T05:31:54.165Z,5.20
2023-04-19T05:32:54.080Z,5.27
2023-04-19T05:33:54.028Z,5.31
2023-04-19T05:34:53.993Z,5.31
2023-04-19T05:35:53.993Z,5.37
2023-04-19T05:36:53.980Z,5.43
2023-04-19T05:37:53.948Z,5.45
2023-04-19T05:38:53.985Z,5.48
2023-04-19T05:39:53.942Z,5.50
2023-04-19T05:40:53.930Z,5.49
2023-04-19T05:41:53.904Z,5.52
2023-04-19T05:42:53.886Z,5.56
2023-04-19T05:43:54.170Z,5.59
2023-04-19T05:44:53.919Z,5.63
2023-04-19T05:45:53.911Z,5.64
2023-04-19T05:46:53.866Z,5.66
2023-04-19T05:47:53.928Z,5.71
2023-04-19T05:48:53.835Z,5.71
2023-04-19T05:49:53.803Z,5.71
2023-04-19T05:50:53.809Z,5.81
2023-04-19T05:51:53.788Z,5.78
2023-04-19T05:52:53.777Z,5.83
2023-04-19T05:53:55.176Z,5.86
2023-04-19T05:54:53.749Z,5.85
2023-04-19T05:55:53.761Z,5.89
2023-04-19T05:56:53.752Z,5.89
2023-04-19T05:57:53.717Z,5.92
2023-04-19T05:58:53.707Z,5.92
2023-04-19T05:59:53.693Z,6.00
2023-04-19T06:00:53.673Z,6.04
2023-04-19T06:01:53.700Z,6.03
2023-04-19T06:02:53.777Z,6.06
2023-04-19T06:03:53.938Z,6.13
2023-04-19T06:04:53.684Z,6.18
2023-04-19T06:05:53.644Z,6.16
2023-04-19T06:06:53.574Z,6.21
2023-04-19T06:07:55.811Z,6.22
2023-04-19T06:08:54.953Z,6.26
2023-04-19T06:09:53.594Z,6.32
2023-04-19T06:10:57.110Z,6.38
2023-04-19T06:11:54.584Z,6.36
2023-04-19T06:12:53.506Z,6.44
2023-04-19T06:13:53.489Z,6.50
2023-04-19T06:14:53.478Z,6.53
2023-04-19T06:15:53.473Z,6.53
2023-04-19T06:16:53.464Z,6.54
2023-04-19T06:17:53.493Z,6.61
2023-04-19T06:18:53.441Z,6.61
2023-04-19T06:19:53.466Z,6.65
2023-04-19T06:20:53.405Z,6.69
2023-04-19T06:21:53.408Z,6.73
2023-04-19T06:22:53.385Z,6.77
2023-04-19T06:23:53.362Z,6.80
2023-04-19T06:24:53.350Z,6.83
2023-04-19T06:25:53.356Z,6.81
2023-04-19T06:26:53.355Z,6.81
2023-04-19T06:27:53.327Z,6.87
2023-04-19T06:28:53.311Z,6.97
2023-04-19T06:29:53.361Z,6.97
2023-04-19T06:30:53.281Z,7.01
2023-04-19T06:31:53.299Z,7.04
2023-04-19T06:32:53.298Z,7.08
2023-04-19T06:33:53.291Z,7.16
2023-04-19T06:34:53.223Z,7.15
2023-04-19T06:35:53.254Z,7.20
2023-04-19T06:36:53.183Z,7.27
2023-04-19T06:37:53.207Z,7.32
2023-04-19T06:38:53.189Z,7.38
2023-04-19T06:39:53.192Z,7.49
2023-04-19T06:40:53.168Z,7.56
2023-04-19T06:41:53.172Z,7.59
2023-04-19T06:42:53.153Z,7.60
2023-04-19T06:43:53.135Z,7.62
2023-04-19T06:44:53.139Z,7.69
2023-04-19T06:45:53.101Z,7.74
2023-04-19T06:47:00.431Z,7.77
2023-04-19T06:47:53.206Z,7.77
2023-04-19T06:48:53.092Z,7.77
2023-04-19T06:49:53.028Z,7.84
2023-04-19T06:50:53.006Z,7.78
2023-04-19T06:51:53.001Z,7.75
2023-04-19T06:52:53.012Z,7.69
2023-04-19T06:53:53.036Z,7.75
2023-04-19T06:54:52.963Z,7.72
2023-04-19T06:55:52.963Z,7.77
2023-04-19T06:56:52.939Z,7.82
2023-04-19T06:57:52.924Z,7.85
2023-04-19T06:58:52.923Z,7.92
2023-04-19T06:59:52.920Z,8.00
2023-04-19T07:00:52.898Z,8.04
2023-04-19T07:01:52.942Z,8.03
2023-04-19T07:02:52.964Z,8.03
2023-04-19T07:03:53.987Z,8.03
2023-04-19T07:04:52.895Z,8.10
2023-04-19T07:05:52.817Z,8.18
2023-04-19T07:06:52.802Z,8.22
2023-04-19T07:07:52.791Z,8.30
2023-04-19T07:08:53.803Z,8.32
2023-04-19T07:09:52.810Z,8.33
2023-04-19T07:10:52.768Z,8.29
2023-04-19T07:11:52.767Z,8.32
2023-04-19T07:12:52.910Z,8.25
2023-04-19T07:13:52.713Z,8.30
2023-04-19T07:14:52.725Z,8.28
2023-04-19T07:15:52.760Z,8.33
2023-04-19T07:16:52.870Z,8.37
2023-04-19T07:17:52.761Z,8.40
2023-04-19T07:18:52.684Z,8.44
2023-04-19T07:19:52.660Z,8.53
2023-04-19T07:20:52.652Z,8.60
2023-04-19T07:21:52.694Z,8.71
2023-04-19T07:22:52.658Z,8.79
2023-04-19T07:23:52.609Z,8.79
2023-04-19T07:24:52.567Z,8.84
2023-04-19T07:25:52.578Z,8.91
2023-04-19T07:26:52.577Z,8.91
2023-04-19T07:27:52.547Z,8.91
2023-04-19T07:28:52.527Z,8.90
2023-04-19T07:29:52.512Z,8.88
2023-04-19T07:30:52.624Z,8.94
2023-04-19T07:31:52.542Z,8.86
2023-04-19T07:32:52.505Z,8.88
2023-04-19T07:33:52.475Z,8.93
2023-04-19T07:34:52.489Z,8.97
2023-04-19T07:35:52.453Z,9.06
2023-04-19T07:36:52.459Z,9.09
2023-04-19T07:37:52.409Z,9.21
2023-04-19T07:38:52.415Z,9.32
2023-04-19T07:39:52.366Z,9.38
2023-04-19T07:40:52.383Z,9.49
2023-04-19T07:41:52.388Z,9.56
2023-04-19T07:42:52.350Z,9.53
2023-04-19T07:43:52.329Z,9.57
2023-04-19T07:44:52.364Z,9.60
2023-04-19T07:45:52.294Z,9.63
2023-04-19T07:46:52.422Z,9.61
2023-04-19T07:47:52.298Z,9.61
2023-04-19T07:48:52.279Z,9.60
2023-04-19T07:49:52.262Z,9.61
2023-04-19T07:50:52.266Z,9.63
2023-04-19T07:51:52.217Z,9.70
2023-04-19T07:52:52.226Z,9.78
2023-04-19T07:53:52.175Z,9.82
2023-04-19T07:54:52.203Z,9.86
2023-04-19T07:55:52.182Z,9.82
2023-04-19T07:56:52.152Z,9.85
2023-04-19T07:57:52.141Z,9.86
2023-04-19T07:59:04.513Z,9.83
2023-04-19T07:59:53.121Z,9.86
2023-04-19T08:00:52.193Z,9.91
2023-04-19T08:01:52.173Z,9.99
2023-04-19T08:02:52.340Z,10.01
2023-04-19T08:03:52.385Z,10.07
2023-04-19T08:04:52.267Z,10.14
2023-04-19T08:05:52.223Z,10.21
2023-04-19T08:06:52.008Z,10.22
2023-04-19T08:07:52.017Z,10.22
2023-04-19T08:08:52.011Z,10.28
2023-04-19T08:09:52.069Z,10.26
2023-04-19T08:10:51.978Z,10.25
2023-04-19T08:11:51.994Z,10.26
2023-04-19T08:13:05.081Z,10.28
2023-04-19T08:14:04.614Z,10.37
2023-04-19T08:15:03.859Z,10.34
2023-04-19T08:16:27.942Z,10.22
2023-04-19T08:17:51.944Z,10.22
2023-04-19T08:18:51.876Z,10.33
2023-04-19T08:19:51.866Z,10.47
2023-04-19T08:20:51.902Z,10.62
2023-04-19T08:21:51.852Z,10.70
2023-04-19T08:22:51.828Z,10.66
2023-04-19T08:23:54.169Z,10.59
2023-04-19T08:24:51.794Z,10.52
2023-04-19T08:25:51.776Z,10.44
2023-04-19T08:26:51.785Z,10.37
2023-04-19T08:27:51.796Z,10.28
2023-04-19T08:28:51.736Z,10.26
2023-04-19T08:29:51.750Z,10.17
2023-04-19T08:30:51.753Z,10.24
2023-04-19T08:31:51.836Z,10.34
2023-04-19T08:32:51.712Z,10.44
2023-04-19T08:33:51.684Z,10.51
2023-04-19T08:34:51.661Z,10.51
2023-04-19T08:35:51.691Z,10.60
2023-04-19T08:37:02.677Z,10.66
2023-04-19T08:37:52.637Z,10.80
2023-04-19T08:39:04.326Z,10.84
2023-04-19T08:39:52.620Z,10.98
2023-04-19T08:40:51.610Z,11.09
2023-04-19T08:41:59.382Z,11.03
2023-04-19T08:42:52.585Z,10.99
2023-04-19T08:43:51.552Z,11.06
2023-04-19T08:45:09.331Z,11.01
2023-04-19T08:45:52.599Z,10.94
2023-04-19T08:46:51.572Z,11.03
2023-04-19T08:47:59.503Z,11.25
2023-04-19T08:48:52.589Z,11.39
2023-04-19T08:50:06.807Z,11.52
2023-04-19T08:51:04.162Z,11.52
2023-04-19T08:51:52.448Z,11.57
2023-04-19T08:52:55.880Z,11.50
2023-04-19T08:53:52.427Z,11.44
2023-04-19T08:54:51.408Z,11.39
2023-04-19T08:56:08.772Z,11.34
2023-04-19T08:56:52.465Z,11.16
2023-04-19T08:57:51.368Z,11.06
2023-04-19T08:59:11.048Z,10.88
2023-04-19T08:59:52.359Z,10.89
2023-04-19T09:00:51.329Z,10.96
2023-04-19T09:01:51.372Z,11.09
2023-04-19T09:02:51.596Z,11.11
2023-04-19T09:04:00.540Z,11.36
2023-04-19T09:04:52.552Z,11.49
2023-04-19T09:05:51.540Z,11.71
2023-04-19T09:06:51.237Z,11.93
2023-04-19T09:07:51.230Z,12.09
2023-04-19T09:08:51.197Z,12.09
2023-04-19T09:10:51.203Z,11.99
2023-04-19T09:11:51.180Z,12.01
2023-04-19T09:12:51.152Z,11.87
2023-04-19T09:13:51.847Z,11.85
2023-04-19T09:15:01.216Z,11.75
2023-04-19T09:15:52.142Z,11.64
2023-04-19T09:16:51.279Z,11.62
2023-04-19T09:17:51.153Z,11.68
2023-04-19T09:18:59.684Z,11.75
2023-04-19T09:19:52.064Z,11.89
2023-04-19T09:20:51.060Z,12.02
2023-04-19T09:21:51.055Z,12.09
2023-04-19T09:22:51.033Z,12.13
2023-04-19T09:23:51.013Z,11.97
2023-04-19T09:26:15.209Z,11.72
2023-04-19T09:26:51.966Z,11.68
2023-04-19T09:27:50.946Z,11.70
2023-04-19T09:28:50.956Z,11.68
2023-04-19T09:29:50.936Z,11.74
2023-04-19T09:31:02.328Z,11.82
2023-04-19T09:31:52.469Z,11.85
2023-04-19T09:32:50.970Z,12.02
2023-04-19T09:33:50.878Z,12.11
2023-04-19T09:34:50.880Z,12.26
2023-04-19T09:35:50.849Z,12.48
2023-04-19T09:37:00.636Z,12.71
2023-04-19T09:38:04.860Z,12.39
2023-04-19T09:38:51.921Z,12.30
2023-04-19T09:39:51.126Z,12.29
2023-04-19T09:40:50.788Z,12.37
2023-04-19T09:41:50.949Z,12.48
2023-04-19T09:44:05.414Z,12.57
2023-04-19T09:45:21.368Z,12.49
2023-04-19T09:45:51.728Z,12.57
2023-04-19T09:46:53.111Z,12.59
2023-04-19T09:47:50.760Z,12.64
2023-04-19T09:48:50.724Z,12.60
2023-04-19T09:49:51.007Z,12.34
2023-04-19T09:51:50.832Z,12.27
2023-04-19T09:52:50.632Z,12.06
2023-04-19T09:53:50.631Z,12.12
2023-04-19T09:54:50.603Z,12.04
2023-04-19T09:56:00.237Z,11.94
2023-04-19T09:56:51.654Z,12.06
2023-04-19T09:57:50.566Z,12.05
2023-04-19T09:58:56.369Z,12.06
2023-04-19T09:59:51.545Z,12.09
2023-04-19T10:00:54.971Z,12.19
2023-04-19T10:01:51.644Z,12.16
2023-04-19T10:02:52.082Z,12.24
2023-04-19T10:03:51.570Z,12.34
2023-04-19T10:05:51.489Z,12.31
2023-04-19T10:07:07.415Z,12.31
2023-04-19T10:07:51.469Z,12.37
2023-04-19T10:08:50.413Z,12.33
2023-04-19T10:09:54.214Z,12.13
2023-04-19T10:10:51.437Z,12.06
2023-04-19T10:11:52.276Z,12.13
2023-04-19T10:13:50.351Z,12.20
2023-04-19T10:14:50.336Z,12.29
2023-04-19T10:15:54.108Z,12.12
2023-04-19T10:16:51.386Z,12.24
2023-04-19T10:17:50.405Z,12.31
2023-04-19T10:18:50.737Z,12.20
2023-04-19T10:19:50.258Z,12.15
2023-04-19T10:20:50.270Z,12.23
2023-04-19T10:21:50.259Z,12.23
2023-04-19T10:22:50.269Z,12.38
2023-04-19T10:23:50.257Z,12.59
2023-04-19T10:24:50.231Z,12.69
2023-04-19T10:25:50.201Z,12.71
2023-04-19T10:26:50.192Z,12.63
2023-04-19T10:27:50.179Z,12.60
2023-04-19T10:28:50.316Z,12.64
2023-04-19T10:29:50.165Z,12.62
2023-04-19T10:30:50.132Z,12.52
2023-04-19T10:31:50.198Z,12.57
2023-04-19T10:32:50.142Z,12.60
2023-04-19T10:33:50.074Z,12.62
2023-04-19T10:34:50.067Z,12.66
2023-04-19T10:35:50.094Z,12.69
2023-04-19T10:36:50.045Z,12.45
2023-04-19T10:37:50.054Z,12.16
2023-04-19T10:38:50.014Z,12.16
2023-04-19T10:39:50.036Z,12.29
2023-04-19T10:40:49.986Z,12.38
2023-04-19T10:41:50.007Z,12.48
2023-04-19T10:42:49.983Z,12.64
2023-04-19T10:43:49.969Z,12.82
2023-04-19T10:44:49.947Z,12.85
2023-04-19T10:45:50.016Z,12.96
2023-04-19T10:46:49.952Z,13.09
2023-04-19T10:47:49.918Z,13.06
2023-04-19T10:48:49.972Z,12.99
2023-04-19T10:49:49.876Z,12.95
2023-04-19T10:50:49.915Z,12.88
2023-04-19T10:51:49.875Z,12.87
2023-04-19T10:52:49.855Z,12.95
2023-04-19T10:53:49.834Z,12.99
2023-04-19T10:54:49.816Z,13.14
2023-04-19T10:55:49.809Z,13.30
2023-04-19T10:56:49.786Z,13.44
2023-04-19T10:57:49.793Z,13.62
2023-04-19T10:58:49.766Z,13.76
2023-04-19T10:59:49.775Z,13.77
2023-04-19T11:00:49.731Z,13.65
2023-04-19T11:01:49.734Z,13.63
2023-04-19T11:02:49.961Z,13.74
2023-04-19T11:03:49.911Z,13.81
2023-04-19T11:04:49.674Z,13.88
2023-04-19T11:05:49.681Z,13.87
2023-04-19T11:06:49.649Z,13.94
2023-04-19T11:07:49.650Z,13.95
2023-04-19T11:08:49.634Z,14.01
2023-04-19T11:09:49.627Z,14.14
2023-04-19T11:10:50.279Z,14.07
2023-04-19T11:11:49.582Z,14.10
2023-04-19T11:12:49.581Z,13.92
2023-04-19T11:13:49.571Z,13.74
2023-04-19T11:14:49.572Z,13.62
2023-04-19T11:15:49.565Z,13.54
2023-04-19T11:16:49.530Z,13.47
2023-04-19T11:17:57.848Z,13.43
2023-04-19T11:18:50.508Z,13.59
2023-04-19T11:19:49.513Z,13.65
2023-04-19T11:20:49.511Z,13.70
2023-04-19T11:21:49.497Z,13.71
2023-04-19T11:22:49.449Z,13.62
2023-04-19T11:23:49.439Z,13.67
2023-04-19T11:24:49.426Z,13.49
2023-04-19T11:25:49.408Z,13.20
2023-04-19T11:26:49.392Z,13.09
2023-04-19T11:27:49.367Z,13.09
2023-04-19T11:28:49.352Z,13.12
2023-04-19T11:29:49.370Z,13.12
2023-04-19T11:30:49.339Z,13.14
2023-04-19T11:31:49.401Z,13.17
2023-04-19T11:32:49.352Z,13.15
2023-04-19T11:33:49.287Z,13.15
2023-04-19T11:34:49.296Z,13.14
2023-04-19T11:35:49.283Z,12.96
2023-04-19T11:36:49.283Z,12.84
2023-04-19T11:37:49.241Z,12.84
2023-04-19T11:38:49.239Z,12.85
2023-04-19T11:39:49.249Z,12.84
2023-04-19T11:40:49.210Z,12.75
2023-04-19T11:41:49.207Z,12.51
2023-04-19T11:42:49.228Z,12.56
2023-04-19T11:43:49.236Z,12.45
2023-04-19T11:44:49.158Z,12.49
2023-04-19T11:45:49.141Z,12.59
2023-04-19T11:46:49.191Z,12.67
2023-04-19T11:47:49.184Z,12.79
2023-04-19T11:48:49.163Z,12.75
2023-04-19T11:49:49.239Z,12.82
2023-04-19T11:50:49.065Z,12.93
2023-04-19T11:51:49.080Z,13.09
2023-04-19T11:52:49.289Z,13.22
2023-04-19T11:53:49.035Z,13.36
2023-04-19T11:54:49.009Z,13.24
2023-04-19T11:55:49.075Z,13.27
2023-04-19T11:56:48.996Z,13.33
2023-04-19T11:57:49.063Z,13.46
2023-04-19T11:58:49.032Z,13.63
2023-04-19T11:59:48.973Z,13.79
2023-04-19T12:00:48.932Z,13.89
2023-04-19T12:01:48.925Z,13.98
2023-04-19T12:02:49.044Z,14.02
2023-04-19T12:03:49.134Z,13.98
2023-04-19T12:04:49.026Z,14.02
2023-04-19T12:05:49.002Z,13.91
2023-04-19T12:06:48.864Z,13.77
2023-04-19T12:07:48.870Z,13.77
2023-04-19T12:08:48.852Z,13.69
2023-04-19T12:09:48.835Z,13.55
2023-04-19T12:10:48.818Z,13.55
2023-04-19T12:11:48.813Z,13.52
2023-04-19T12:12:48.773Z,13.58
2023-04-19T12:13:48.791Z,13.62
2023-04-19T12:14:48.741Z,13.73
2023-04-19T12:15:48.750Z,13.71
2023-04-19T12:16:48.756Z,13.80
2023-04-19T12:17:56.857Z,13.65
2023-04-19T12:18:49.718Z,13.63
2023-04-19T12:19:48.724Z,13.73
2023-04-19T12:20:48.671Z,13.76
2023-04-19T12:21:48.659Z,13.74
2023-04-19T12:22:48.644Z,13.89
2023-04-19T12:23:48.660Z,13.80
2023-04-19T12:24:48.626Z,13.81
2023-04-19T12:25:48.628Z,13.98
2023-04-19T12:26:48.595Z,14.13
2023-04-19T12:27:48.582Z,13.77
2023-04-19T12:28:48.584Z,13.67
2023-04-19T12:29:48.595Z,13.61
2023-04-19T12:30:48.539Z,13.62
2023-04-19T12:31:48.602Z,13.51
2023-04-19T12:32:48.560Z,13.62
2023-04-19T12:33:48.518Z,13.67
2023-04-19T12:34:48.507Z,13.73
2023-04-19T12:35:48.495Z,13.61
2023-04-19T12:36:48.500Z,13.73
2023-04-19T12:37:48.465Z,13.62
2023-04-19T12:38:48.544Z,13.83
2023-04-19T12:39:48.439Z,13.98
2023-04-19T12:40:48.443Z,14.10
2023-04-19T12:41:48.466Z,14.12
2023-04-19T12:42:48.409Z,13.95
2023-04-19T12:43:48.393Z,13.87
2023-04-19T12:44:48.382Z,13.95
2023-04-19T12:45:48.385Z,13.84
2023-04-19T12:46:48.340Z,13.99
2023-04-19T12:47:55.471Z,14.13
2023-04-19T12:48:48.309Z,14.27
2023-04-19T12:49:48.326Z,14.24
2023-04-19T12:50:48.275Z,14.19
2023-04-19T12:51:48.284Z,14.12
2023-04-19T12:52:48.267Z,13.88
2023-04-19T12:53:48.277Z,13.91
2023-04-19T12:54:48.268Z,13.91
2023-04-19T12:55:48.222Z,14.09
2023-04-19T12:56:48.224Z,14.14
2023-04-19T12:57:48.203Z,13.84
2023-04-19T12:58:48.179Z,13.91
2023-04-19T12:59:48.190Z,14.09
2023-04-19T13:00:48.144Z,14.38
2023-04-19T13:01:48.184Z,14.62
2023-04-19T13:02:48.498Z,14.75
2023-04-19T13:03:48.333Z,14.88
2023-04-19T13:04:48.363Z,15.06
2023-04-19T13:05:48.101Z,15.21
2023-04-19T13:06:48.096Z,15.28
2023-04-19T13:07:48.075Z,15.35
2023-04-19T13:08:48.246Z,15.30
2023-04-19T13:09:48.051Z,15.15
2023-04-19T13:10:48.038Z,15.02
2023-04-19T13:11:48.026Z,14.65
2023-04-19T13:12:47.999Z,14.42
2023-04-19T13:13:48.003Z,14.28
2023-04-19T13:14:47.967Z,13.84
2023-04-19T13:15:47.983Z,13.58